createdAt,value
2018-07-13T00:00:56.974Z,100414.30
2018-07-13T00:03:29.343Z,100414.43
2018-07-13T00:06:01.997Z,100419.27
2018-07-13T00:08:35.948Z,100422.33
2018-07-13T00:11:09.270Z,100418.39
2018-07-13T00:14:21.024Z,100419.87
2018-07-13T00:16:57.404Z,100418.33
2018-07-13T00:19:30.180Z,100412.61
2018-07-13T00:22:03.960Z,100414.72
2018-07-13T00:24:38.041Z,100421.34
2018-07-13T00:27:12.222Z,100417.92
2018-07-13T00:29:45.996Z,100428.13
2018-07-13T00:32:19.490Z,100428.42
2018-07-13T00:34:52.038Z,100427.23
2018-07-13T00:37:29.895Z,100423.97
2018-07-13T00:40:02.563Z,100422.76
2018-07-13T00:42:41.369Z,100426.48
2018-07-13T00:45:16.569Z,100424.30
2018-07-13T00:47:50.255Z,100424.81
2018-07-13T00:50:23.129Z,100423.58
2018-07-13T00:52:55.653Z,100431.13
2018-07-13T00:55:28.371Z,100428.82
2018-07-13T00:58:00.817Z,100429.12
2018-07-13T01:00:33.409Z,100430.73
2018-07-13T01:03:06.591Z,100423.22
2018-07-13T01:05:40.004Z,100423.61
2018-07-13T01:08:12.562Z,100432.39
2018-07-13T01:10:45.682Z,100433.78
2018-07-13T01:13:19.449Z,100426.80
2018-07-13T01:15:51.827Z,100429.35
2018-07-13T01:18:25.170Z,100430.47
2018-07-13T01:20:57.604Z,100427.52
2018-07-13T01:23:30.238Z,100421.28
2018-07-13T01:26:03.541Z,100420.24
2018-07-13T01:28:36.044Z,100423.78
2018-07-13T01:31:08.526Z,100423.27
2018-07-13T01:33:41.697Z,100424.53
2018-07-13T01:36:14.616Z,100418.61
2018-07-13T01:38:47.382Z,100420.07
2018-07-13T01:41:21.217Z,100427.98
2018-07-13T01:43:53.744Z,100429.94
2018-07-13T01:46:26.565Z,100427.05
2018-07-13T01:48:59.538Z,100429.23
2018-07-13T01:51:32.213Z,100430.45
2018-07-13T01:54:06.597Z,100430.50
2018-07-13T01:56:42.509Z,100431.02
2018-07-13T01:59:16.576Z,100435.72
2018-07-13T02:01:49.162Z,100441.11
2018-07-13T02:04:23.137Z,100438.42
2018-07-13T02:06:55.742Z,100438.50
2018-07-13T02:09:28.521Z,100442.28
2018-07-13T02:12:01.347Z,100443.30
2018-07-13T02:14:33.864Z,100440.22
2018-07-13T02:17:06.869Z,100440.95
2018-07-13T02:19:39.857Z,100440.92
2018-07-13T02:22:12.925Z,100444.80
2018-07-13T02:24:46.742Z,100439.77
2018-07-13T02:27:20.655Z,100438.83
2018-07-13T02:29:53.899Z,100439.70
2018-07-13T02:32:26.413Z,100442.02
2018-07-13T02:34:59.250Z,100440.90
2018-07-13T02:37:31.825Z,100446.94
2018-07-13T02:40:04.985Z,100444.84
2018-07-13T02:42:39.062Z,100446.11
2018-07-13T02:45:12.929Z,100448.97
2018-07-13T02:47:45.414Z,100447.13
2018-07-13T02:50:23.517Z,100447.18
2018-07-13T02:52:56.026Z,100442.38
2018-07-13T02:55:29.310Z,100445.84
2018-07-13T02:58:03.121Z,100450.18
2018-07-13T03:00:36.885Z,100452.78
2018-07-13T03:03:09.766Z,100457.28
2018-07-13T03:05:42.658Z,100452.64
2018-07-13T03:08:16.430Z,100456.79
2018-07-13T03:10:49.100Z,100459.46
2018-07-13T03:13:22.285Z,100454.14
2018-07-13T03:15:55.006Z,100467.37
2018-07-13T03:18:27.572Z,100460.78
2018-07-13T03:21:00.607Z,100464.20
2018-07-13T03:23:33.078Z,100464.11
2018-07-13T03:26:06.668Z,100466.12
2018-07-13T03:28:39.574Z,100467.36
2018-07-13T03:31:12.194Z,100470.19
2018-07-13T03:33:44.874Z,100471.94
2018-07-13T03:36:17.772Z,100473.85
2018-07-13T03:38:50.432Z,100476.98
2018-07-13T03:41:22.923Z,100475.26
2018-07-13T03:43:55.743Z,100478.17
2018-07-13T03:46:28.420Z,100482.13
2018-07-13T03:49:00.785Z,100486.00
2018-07-13T03:51:34.304Z,100484.11
2018-07-13T03:54:07.538Z,100482.56
2018-07-13T03:56:40.886Z,100485.83
2018-07-13T03:59:14.637Z,100485.78
2018-07-13T04:01:47.205Z,100488.10
2018-07-13T04:04:24.216Z,100481.81
2018-07-13T04:06:59.401Z,100484.98
2018-07-13T04:09:31.617Z,100485.73
2018-07-13T04:12:04.501Z,100480.63
2018-07-13T04:14:37.035Z,100479.47
2018-07-13T04:17:09.742Z,100480.73
2018-07-13T04:19:42.279Z,100477.58
2018-07-13T04:22:14.917Z,100481.84
2018-07-13T04:24:49.138Z,100480.14
2018-07-13T04:27:25.153Z,100483.19
2018-07-13T04:29:58.996Z,100479.83
2018-07-13T04:32:32.129Z,100482.84
2018-07-13T04:35:05.472Z,100480.44
2018-07-13T04:37:38.018Z,100477.61
2018-07-13T04:40:11.927Z,100480.80
2018-07-13T04:42:44.432Z,100477.11
2018-07-13T04:45:16.251Z,100485.13
2018-07-13T04:47:50.783Z,100483.05
2018-07-13T04:50:25.276Z,100486.05
2018-07-13T04:52:58.773Z,100487.31
2018-07-13T04:55:32.213Z,100491.23
2018-07-13T04:58:05.276Z,100491.95
2018-07-13T05:00:39.901Z,100488.22
2018-07-13T05:03:13.278Z,100490.48
2018-07-13T05:05:47.130Z,100492.07
2018-07-13T05:08:20.001Z,100489.11
2018-07-13T05:10:52.669Z,100488.06
2018-07-13T05:13:25.899Z,100485.29
2018-07-13T05:15:59.562Z,100488.80
2018-07-13T05:18:32.298Z,100489.51
2018-07-13T05:21:06.466Z,100489.25
2018-07-13T05:23:40.514Z,100492.09
2018-07-13T05:26:16.066Z,100494.45
2018-07-13T05:28:52.957Z,100499.53
2018-07-13T05:31:27.086Z,100501.98
2018-07-13T05:34:00.846Z,100502.01
2018-07-13T05:36:34.949Z,100499.88
2018-07-13T05:39:12.793Z,100502.82
2018-07-13T05:41:46.054Z,100503.02
2018-07-13T05:44:18.522Z,100505.67
2018-07-13T05:46:52.249Z,100504.35
2018-07-13T05:49:26.816Z,100510.91
2018-07-13T05:52:00.441Z,100507.67
2018-07-13T05:54:38.902Z,100513.95
2018-07-13T05:57:14.112Z,100513.43
2018-07-13T05:59:47.430Z,100519.44
2018-07-13T06:02:22.353Z,100513.92
2018-07-13T06:04:57.230Z,100517.10
2018-07-13T06:07:32.092Z,100514.96
2018-07-13T06:10:05.346Z,100514.11
2018-07-13T06:12:39.112Z,100513.58
2018-07-13T06:15:16.948Z,100514.77
2018-07-13T06:17:49.466Z,100517.00
2018-07-13T06:20:27.602Z,100515.23
2018-07-13T06:23:01.084Z,100509.99
2018-07-13T06:25:41.105Z,100510.03
2018-07-13T06:28:13.694Z,100508.13
2018-07-13T06:30:48.002Z,100505.50
2018-07-13T06:33:23.400Z,100512.70
2018-07-13T06:36:00.154Z,100512.97
2018-07-13T06:38:36.550Z,100514.48
2018-07-13T06:41:09.976Z,100515.84
2018-07-13T06:43:42.541Z,100517.28
2018-07-13T06:46:16.436Z,100517.53
2018-07-13T06:48:49.113Z,100518.20
2018-07-13T06:51:23.700Z,100518.35
2018-07-13T06:53:56.590Z,100519.84
2018-07-13T06:56:29.432Z,100521.89
2018-07-13T06:59:13.931Z,100524.10
2018-07-13T07:01:49.553Z,100528.02
2018-07-13T07:04:31.426Z,100528.45
2018-07-13T07:07:19.588Z,100521.91
2018-07-13T07:09:59.172Z,100522.09
2018-07-13T07:13:08.536Z,100525.17
2018-07-13T07:15:42.136Z,100525.48
2018-07-13T07:18:15.248Z,100525.17
2018-07-13T07:20:47.892Z,100524.41
2018-07-13T07:23:21.569Z,100524.73
2018-07-13T07:25:57.307Z,100523.77
2018-07-13T07:28:34.030Z,100522.00
2018-07-13T07:31:07.465Z,100524.04
2018-07-13T07:33:40.352Z,100519.09
2018-07-13T07:36:14.426Z,100517.58
2018-07-13T07:38:47.783Z,100519.40
2018-07-13T07:41:21.890Z,100516.96
2018-07-13T07:43:54.967Z,100520.27
2018-07-13T07:46:29.312Z,100521.87
2018-07-13T07:49:03.066Z,100522.66
2018-07-13T07:51:36.137Z,100518.61
2018-07-13T07:54:08.646Z,100514.05
2018-07-13T07:56:41.636Z,100507.80
2018-07-13T07:59:14.209Z,100508.72
2018-07-13T08:01:46.794Z,100511.23
2018-07-13T08:04:19.604Z,100512.72
2018-07-13T08:06:52.793Z,100514.95
2018-07-13T08:09:25.125Z,100516.55
2018-07-13T08:12:00.242Z,100513.34
2018-07-13T08:14:33.643Z,100512.80
2018-07-13T08:17:13.009Z,100511.44
2018-07-13T08:19:56.643Z,100513.84
2018-07-13T08:22:56.190Z,100511.47
2018-07-13T08:25:34.200Z,100513.39
2018-07-13T08:28:13.744Z,100514.80
2018-07-13T08:30:57.419Z,100506.92
2018-07-13T08:33:29.992Z,100514.75
2018-07-13T08:36:05.031Z,100514.02
2018-07-13T08:38:44.752Z,100512.61
2018-07-13T08:41:17.588Z,100511.60
2018-07-13T08:43:52.551Z,100511.22
2018-07-13T08:46:25.031Z,100517.80
2018-07-13T08:49:01.300Z,100520.17
2018-07-13T08:51:35.476Z,100511.89
2018-07-13T08:54:13.884Z,100513.57
2018-07-13T08:56:50.080Z,100511.69
2018-07-13T08:59:24.772Z,100505.93
2018-07-13T09:01:58.424Z,100509.19
2018-07-13T09:04:33.162Z,100506.28
2018-07-13T09:07:07.729Z,100505.91
2018-07-13T09:09:43.057Z,100501.66
2018-07-13T09:12:19.124Z,100503.50
2018-07-13T09:14:53.054Z,100500.86
2018-07-13T09:17:26.573Z,100497.48
2018-07-13T09:20:02.461Z,100500.61
2018-07-13T09:22:35.607Z,100507.52
2018-07-13T09:25:10.309Z,100503.31
2018-07-13T09:27:52.967Z,100503.74
2018-07-13T09:30:26.977Z,100508.66
2018-07-13T09:32:59.580Z,100503.61
2018-07-13T09:35:33.978Z,100500.88
2018-07-13T09:38:06.699Z,100500.67
2018-07-13T09:40:42.140Z,100507.22
2018-07-13T09:43:15.671Z,100497.58
2018-07-13T09:45:50.130Z,100497.25
2018-07-13T09:48:24.611Z,100508.78
2018-07-13T09:50:58.820Z,100502.56
2018-07-13T09:53:32.204Z,100498.75
2018-07-13T09:56:06.679Z,100504.58
2018-07-13T09:58:41.807Z,100501.14
2018-07-13T10:01:19.816Z,100506.02
2018-07-13T10:03:54.470Z,100496.42
2018-07-13T10:06:32.521Z,100502.97
2018-07-13T10:09:06.486Z,100500.94
2018-07-13T10:11:46.126Z,100504.75
2018-07-13T10:14:24.145Z,100508.52
2018-07-13T10:16:57.108Z,100506.53
2018-07-13T10:19:38.607Z,100506.58
2018-07-13T10:22:24.438Z,100510.13
2018-07-13T10:25:03.666Z,100508.21
2018-07-13T10:27:41.180Z,100500.67
2018-07-13T10:30:22.353Z,100501.85
2018-07-13T10:32:59.315Z,100490.76
2018-07-13T10:35:34.528Z,100499.39
2018-07-13T10:38:09.496Z,100502.91
2018-07-13T10:40:45.072Z,100495.45
2018-07-13T10:43:20.471Z,100495.39
2018-07-13T10:45:56.043Z,100493.97
2018-07-13T10:48:29.645Z,100481.66
2018-07-13T10:51:03.889Z,100481.84
2018-07-13T10:53:39.155Z,100490.50
2018-07-13T10:56:16.036Z,100484.31
2018-07-13T10:58:50.301Z,100481.23
2018-07-13T11:01:24.970Z,100479.89
2018-07-13T11:03:57.733Z,100482.97
2018-07-13T11:06:33.023Z,100483.36
2018-07-13T11:09:09.432Z,100479.73
2018-07-13T11:11:42.180Z,100479.29
2018-07-13T11:14:15.137Z,100477.13
2018-07-13T11:16:48.681Z,100478.50
2018-07-13T11:19:21.481Z,100475.78
2018-07-13T11:22:01.923Z,100474.05
2018-07-13T11:24:37.828Z,100471.25
2018-07-13T11:27:15.645Z,100473.34
2018-07-13T11:29:50.852Z,100470.69
2018-07-13T11:32:24.964Z,100470.01
2018-07-13T11:34:57.553Z,100468.28
2018-07-13T11:37:31.009Z,100464.75
2018-07-13T11:40:06.545Z,100462.17
2018-07-13T11:42:42.644Z,100456.23
2018-07-13T11:45:19.511Z,100455.52
2018-07-13T11:47:53.158Z,100456.70
2018-07-13T11:50:25.943Z,100459.27
2018-07-13T11:53:00.578Z,100454.30
2018-07-13T11:55:33.156Z,100449.62
2018-07-13T11:58:07.669Z,100452.59
2018-07-13T12:00:42.805Z,100450.98
2018-07-13T12:03:17.216Z,100447.81
2018-07-13T12:05:49.810Z,100442.36
2018-07-13T12:08:25.725Z,100439.50
2018-07-13T12:11:02.728Z,100439.48
2018-07-13T12:13:39.216Z,100437.42
2018-07-13T12:16:13.219Z,100433.83
2018-07-13T12:18:47.944Z,100433.32
2018-07-13T12:21:21.833Z,100438.45
2018-07-13T12:24:04.602Z,100431.51
2018-07-13T12:27:04.850Z,100424.38
2018-07-13T12:30:09.749Z,100419.22
2018-07-13T12:32:52.888Z,100418.86
2018-07-13T12:35:35.012Z,100418.62
2018-07-13T12:38:19.151Z,100417.40
2018-07-13T12:41:15.039Z,100409.48
2018-07-13T12:43:53.537Z,100411.23
2018-07-13T12:46:30.868Z,100409.48
2018-07-13T12:49:08.472Z,100411.58
2018-07-13T12:51:43.752Z,100417.20
2018-07-13T12:54:19.250Z,100410.36
2018-07-13T12:56:53.623Z,100403.56
2018-07-13T12:59:29.383Z,100403.88
2018-07-13T13:02:05.302Z,100403.49
2018-07-13T13:04:37.881Z,100399.05
2018-07-13T13:07:11.712Z,100401.31
2018-07-13T13:09:46.536Z,100393.56
2018-07-13T13:12:22.692Z,100398.20
2018-07-13T13:14:57.554Z,100401.88
2018-07-13T13:17:38.488Z,100397.44
2018-07-13T13:20:18.684Z,100402.16
2018-07-13T13:22:59.080Z,100395.50
2018-07-13T13:25:36.806Z,100397.36
2018-07-13T13:28:15.240Z,100397.25
2018-07-13T13:30:51.883Z,100398.25
2018-07-13T13:33:30.648Z,100395.34
2018-07-13T13:36:05.134Z,100391.20
2018-07-13T13:38:42.782Z,100397.41
2018-07-13T13:41:18.121Z,100388.14
2018-07-13T13:44:03.466Z,100387.85
2018-07-13T13:46:39.259Z,100388.23
2018-07-13T13:49:15.173Z,100391.76
2018-07-13T13:51:49.260Z,100388.05
2018-07-13T13:54:27.368Z,100388.66
2018-07-13T13:57:03.959Z,100390.81
2018-07-13T13:59:37.469Z,100384.34
2018-07-13T14:02:11.870Z,100385.22
2018-07-13T14:04:46.484Z,100381.05
2018-07-13T14:07:21.102Z,100373.94
2018-07-13T14:09:54.639Z,100370.75
2018-07-13T14:12:30.634Z,100370.09
2018-07-13T14:15:05.170Z,100367.62
2018-07-13T14:17:38.301Z,100362.73
2018-07-13T14:20:15.589Z,100361.66
2018-07-13T14:22:56.139Z,100363.33
2018-07-13T14:25:31.761Z,100357.33
2018-07-13T14:28:06.041Z,100362.61
2018-07-13T14:30:38.647Z,100363.15
2018-07-13T14:33:15.708Z,100354.95
2018-07-13T14:35:50.624Z,100358.06
2018-07-13T14:38:24.529Z,100358.63
2018-07-13T14:40:59.859Z,100356.91
2018-07-13T14:46:06.632Z,100355.44
2018-07-13T14:48:46.403Z,100351.94
2018-07-13T14:51:20.567Z,100354.12
2018-07-13T14:53:56.707Z,100351.67
2018-07-13T14:56:32.691Z,100348.47
2018-07-13T14:59:07.805Z,100339.25
2018-07-13T15:01:41.645Z,100337.27
2018-07-13T15:04:18.014Z,100332.78
2018-07-13T15:07:03.070Z,100334.56
2018-07-13T15:09:35.914Z,100339.63
2018-07-13T15:12:09.832Z,100339.27
2018-07-13T15:14:44.493Z,100338.36
2018-07-13T15:17:20.417Z,100328.42
2018-07-13T15:19:53.897Z,100328.14
2018-07-13T15:22:39.529Z,100327.91
2018-07-13T15:25:19.779Z,100329.57
2018-07-13T15:27:52.620Z,100331.37
2018-07-13T15:30:28.324Z,100332.22
2018-07-13T15:33:09.130Z,100325.77
2018-07-13T15:35:44.390Z,100326.16
2018-07-13T15:38:23.038Z,100328.77
2018-07-13T15:40:58.165Z,100327.36
2018-07-13T15:43:31.091Z,100322.51
2018-07-13T15:46:06.593Z,100320.83
2018-07-13T15:48:40.214Z,100322.77
2018-07-13T15:51:13.460Z,100323.10
2018-07-13T15:53:48.233Z,100324.06
2018-07-13T15:56:21.788Z,100322.55
2018-07-13T15:58:55.426Z,100319.91
2018-07-13T16:01:29.359Z,100323.25
2018-07-13T16:04:01.943Z,100321.24
2018-07-13T16:06:35.563Z,100315.91
2018-07-13T16:09:08.558Z,100315.75
2018-07-13T16:11:45.823Z,100318.91
2018-07-13T16:14:18.525Z,100312.91
2018-07-13T16:16:54.231Z,100316.91
2018-07-13T16:19:28.831Z,100315.45
2018-07-13T16:22:04.321Z,100311.63
2018-07-13T16:24:38.347Z,100311.18
2018-07-13T16:27:11.193Z,100318.58
2018-07-13T16:29:47.680Z,100313.47
2018-07-13T16:32:20.585Z,100316.91
2018-07-13T16:34:53.757Z,100310.17
2018-07-13T16:37:27.849Z,100314.30
2018-07-13T16:40:02.532Z,100308.41
2018-07-13T16:42:35.062Z,100308.28
2018-07-13T16:45:07.074Z,100309.16
2018-07-13T16:47:40.970Z,100306.53
2018-07-13T16:50:14.324Z,100303.02
2018-07-13T16:52:48.248Z,100298.09
2018-07-13T16:55:30.837Z,100297.84
2018-07-13T16:58:07.727Z,100296.64
2018-07-13T17:00:41.253Z,100291.20
2018-07-13T17:03:15.485Z,100290.06
2018-07-13T17:05:47.990Z,100290.93
2018-07-13T17:08:37.792Z,100290.02
2018-07-13T17:11:15.211Z,100288.92
2018-07-13T17:13:51.169Z,100285.20
2018-07-13T17:16:28.210Z,100279.95
2018-07-13T17:19:01.063Z,100280.27
2018-07-13T17:21:35.524Z,100282.00
2018-07-13T17:24:09.011Z,100281.50
2018-07-13T17:26:44.753Z,100277.97
2018-07-13T17:29:18.878Z,100279.34
2018-07-13T17:31:54.556Z,100283.33
2018-07-13T17:34:29.308Z,100281.26
2018-07-13T17:37:03.430Z,100284.50
2018-07-13T17:39:37.253Z,100284.15
2018-07-13T17:42:09.893Z,100282.12
2018-07-13T17:44:46.502Z,100278.59
2018-07-13T17:47:20.107Z,100280.58
2018-07-13T17:49:53.498Z,100280.80
2018-07-13T17:52:28.161Z,100279.81
2018-07-13T17:55:01.025Z,100275.95
2018-07-13T17:57:36.312Z,100277.94
2018-07-13T18:00:14.086Z,100279.02
2018-07-13T18:02:50.066Z,100276.27
2018-07-13T18:05:25.778Z,100277.65
2018-07-13T18:08:00.538Z,100281.14
2018-07-13T18:10:36.798Z,100279.62
2018-07-13T18:13:10.980Z,100279.50
2018-07-13T18:15:45.851Z,100269.91
2018-07-13T18:18:19.660Z,100272.97
2018-07-13T18:20:54.719Z,100270.22
2018-07-13T18:23:29.112Z,100277.84
2018-07-13T18:26:04.604Z,100275.55
2018-07-13T18:28:50.781Z,100276.95
2018-07-13T18:31:31.717Z,100267.28
2018-07-13T18:34:05.630Z,100275.08
2018-07-13T18:36:39.122Z,100273.61
2018-07-13T18:39:15.692Z,100270.22
2018-07-13T18:41:50.034Z,100274.98
2018-07-13T18:44:22.856Z,100274.76
2018-07-13T18:47:02.313Z,100282.13
2018-07-13T18:49:36.356Z,100279.84
2018-07-13T18:52:11.134Z,100281.03
2018-07-13T18:54:44.976Z,100280.18
2018-07-13T18:57:20.290Z,100282.33
2018-07-13T18:59:55.146Z,100283.41
2018-07-13T19:02:34.626Z,100283.61
2018-07-13T19:05:11.467Z,100290.00
2018-07-13T19:07:52.265Z,100291.59
2018-07-13T19:10:28.932Z,100292.86
2018-07-13T19:13:02.584Z,100285.62
2018-07-13T19:15:37.300Z,100288.83
2018-07-13T19:18:12.514Z,100290.09
2018-07-13T19:20:51.511Z,100289.32
2018-07-13T19:23:26.229Z,100287.69
2018-07-13T19:26:02.560Z,100299.06
2018-07-13T19:28:38.529Z,100300.27
2018-07-13T19:31:14.996Z,100310.79
2018-07-13T19:33:52.050Z,100312.73
2018-07-13T19:36:28.440Z,100317.73
2018-07-13T19:39:04.310Z,100313.77
2018-07-13T19:41:46.557Z,100321.27
2018-07-13T19:44:27.952Z,100321.16
2018-07-13T19:47:07.658Z,100319.45
2018-07-13T19:49:47.537Z,100324.84
2018-07-13T19:52:27.363Z,100326.54
2018-07-13T19:55:07.822Z,100330.87
2018-07-13T19:57:45.578Z,100333.69
2018-07-13T20:00:25.466Z,100332.51
2018-07-13T20:03:04.763Z,100333.86
2018-07-13T20:05:48.122Z,100336.47
2018-07-13T20:08:30.753Z,100338.83
2018-07-13T20:11:08.506Z,100338.91
2018-07-13T20:13:44.247Z,100341.48
2018-07-13T20:16:25.958Z,100340.63
2018-07-13T20:19:01.593Z,100342.91
2018-07-13T20:21:41.438Z,100341.86
2018-07-13T20:24:17.025Z,100347.08
2018-07-13T20:26:52.137Z,100346.47
2018-07-13T20:29:29.766Z,100353.64
2018-07-13T20:32:04.921Z,100355.14
2018-07-13T20:34:39.126Z,100352.55
2018-07-13T20:37:15.879Z,100357.31
2018-07-13T20:39:53.377Z,100355.67
2018-07-13T20:42:27.745Z,100362.40
2018-07-13T20:45:09.586Z,100364.94
2018-07-13T20:47:46.045Z,100362.09
2018-07-13T20:50:22.426Z,100363.30
2018-07-13T20:53:06.747Z,100363.75
2018-07-13T20:55:46.984Z,100368.39
2018-07-13T20:58:23.578Z,100371.94
2018-07-13T21:00:59.516Z,100368.53
2018-07-13T21:03:36.504Z,100374.06
2018-07-13T21:06:12.477Z,100375.25
2018-07-13T21:08:47.442Z,100375.41
2018-07-13T21:11:33.663Z,100372.27
2018-07-13T21:14:17.173Z,100370.79
2018-07-13T21:16:53.168Z,100372.43
2018-07-13T21:19:27.129Z,100376.30
2018-07-13T21:22:00.980Z,100375.67
2018-07-13T21:24:34.484Z,100380.58
2018-07-13T21:27:07.838Z,100381.09
2018-07-13T21:29:43.004Z,100380.80
2018-07-13T21:32:15.554Z,100385.38
2018-07-13T21:34:49.321Z,100384.02
2018-07-13T21:37:22.597Z,100385.33
2018-07-13T21:39:58.472Z,100384.33
2018-07-13T21:42:33.531Z,100383.99
2018-07-13T21:45:08.488Z,100382.31
2018-07-13T21:47:44.794Z,100379.52
2018-07-13T21:50:18.643Z,100379.56
2018-07-13T21:52:53.752Z,100384.06
2018-07-13T21:55:35.983Z,100380.94
2018-07-13T21:58:17.746Z,100380.90
2018-07-13T22:00:52.308Z,100378.70
2018-07-13T22:03:25.017Z,100379.11
2018-07-13T22:05:59.029Z,100379.98
2018-07-13T22:08:39.208Z,100378.19
2018-07-13T22:11:11.796Z,100382.38
2018-07-13T22:13:44.755Z,100379.82
2018-07-13T22:16:17.307Z,100378.15
2018-07-13T22:18:52.765Z,100376.15
2018-07-13T22:21:27.470Z,100386.16
2018-07-13T22:24:01.938Z,100388.97
2018-07-13T22:26:35.616Z,100388.38
2018-07-13T22:29:09.421Z,100388.73
2018-07-13T22:31:45.453Z,100391.95
2018-07-13T22:34:19.858Z,100389.16
2018-07-13T22:36:56.880Z,100391.53
2018-07-13T22:39:29.353Z,100394.11
2018-07-13T22:42:02.373Z,100397.14
2018-07-13T22:44:34.933Z,100397.11
2018-07-13T22:47:09.825Z,100404.34
2018-07-13T22:49:44.275Z,100406.59
2018-07-13T22:52:25.896Z,100405.02
2018-07-13T22:55:00.257Z,100409.02
2018-07-13T22:57:32.764Z,100409.70
2018-07-13T23:00:10.728Z,100410.33
2018-07-13T23:02:46.077Z,100408.56
2018-07-13T23:05:22.097Z,100406.02
2018-07-13T23:07:58.070Z,100407.50
2018-07-13T23:10:31.808Z,100406.09
2018-07-13T23:13:04.736Z,100412.87
2018-07-13T23:15:37.549Z,100411.96
2018-07-13T23:18:11.556Z,100411.98
2018-07-13T23:20:43.967Z,100409.13
2018-07-13T23:23:17.791Z,100405.16
2018-07-13T23:25:51.676Z,100402.99
2018-07-13T23:28:26.661Z,100403.91
2018-07-13T23:31:01.577Z,100402.13
2018-07-13T23:33:34.079Z,100402.70
2018-07-13T23:36:07.550Z,100403.81
2018-07-13T23:38:40.399Z,100409.03
2018-07-13T23:41:13.034Z,100407.76
2018-07-13T23:43:48.589Z,100406.94
2018-07-13T23:46:22.104Z,100404.38
2018-07-13T23:48:55.414Z,100408.04
2018-07-13T23:51:28.052Z,100401.31
2018-07-13T23:54:04.936Z,100402.90
2018-07-13T23:56:40.499Z,100402.98
2018-07-13T23:59:13.013Z,100400.91
